createdAt,value
2023-04-27T00:04:24.965Z,22.3
2023-04-27T00:10:18.756Z,22.3
2023-04-27T00:16:09.752Z,22.2
2023-04-27T00:22:01.253Z,22.2
2023-04-27T00:27:38.017Z,22.2
2023-04-27T00:33:29.236Z,22.2
2023-04-27T00:39:19.552Z,22.1
2023-04-27T00:45:12.778Z,22.1
2023-04-27T00:51:04.716Z,22.1
2023-04-27T00:56:55.191Z,22.1
2023-04-27T01:02:32.153Z,22
2023-04-27T01:08:25.834Z,22
2023-04-27T01:14:16.829Z,21.9
2023-04-27T01:20:09.287Z,21.9
2023-04-27T01:26:02.319Z,21.9
2023-04-27T01:31:53.791Z,21.9
2023-04-27T01:37:46.691Z,21.9
2023-04-27T01:43:38.360Z,21.9
2023-04-27T01:49:29.555Z,21.9
2023-04-27T01:55:21.596Z,21.8
2023-04-27T02:01:12.156Z,21.8
2023-04-27T02:06:49.313Z,21.8
2023-04-27T02:12:26.161Z,21.8
2023-04-27T02:18:18.509Z,22
2023-04-27T02:24:09.307Z,21.4
2023-04-27T02:30:06.532Z,21.3
2023-04-27T02:35:58.920Z,21.7
2023-04-27T02:41:49.524Z,21.5
2023-04-27T02:47:25.941Z,22.1
2023-04-27T02:53:17.915Z,21.8
2023-04-27T02:59:08.925Z,22.1
2023-04-27T03:05:03.623Z,21.9
2023-04-27T03:10:55.858Z,22.1
2023-04-27T03:16:48.822Z,22.3
2023-04-27T03:22:41.360Z,22
2023-04-27T03:28:16.937Z,22.2
2023-04-27T03:33:52.952Z,21.9
2023-04-27T03:39:29.565Z,22.1
2023-04-27T03:45:21.525Z,21.8
2023-04-27T03:51:11.913Z,22
2023-04-27T03:57:04.062Z,21.8
2023-04-27T04:02:55.984Z,21.8
2023-04-27T04:08:48.579Z,22
2023-04-27T04:14:40.360Z,21.8
2023-04-27T04:20:31.942Z,21.9
2023-04-27T04:26:23.116Z,21.8
2023-04-27T04:32:00.444Z,21.8
2023-04-27T04:37:36.725Z,21.7
2023-04-27T04:43:15.323Z,21.8
2023-04-27T04:49:09.731Z,21.6
2023-04-27T04:55:02.095Z,21.5
2023-04-27T05:00:55.055Z,21.4
2023-04-27T05:06:49.114Z,21.4
2023-04-27T05:12:43.585Z,21.4
2023-04-27T05:18:36.685Z,21.3
2023-04-27T05:24:14.626Z,21.3
2023-04-27T05:30:06.172Z,21.3
2023-04-27T05:35:57.412Z,21.3
2023-04-27T05:41:18.456Z,21.2
2023-04-27T05:46:55.368Z,21.2
2023-04-27T05:52:31.623Z,21.2
2023-04-27T06:20:46.272Z,21.1
2023-04-27T06:26:22.435Z,21.1
2023-04-27T06:32:14.358Z,21.1
2023-04-27T06:38:07.649Z,21.1
2023-04-27T06:43:59.112Z,21
2023-04-27T06:49:51.707Z,21
2023-04-27T06:55:45.071Z,21
2023-04-27T07:01:36.697Z,20.9
2023-04-27T07:07:29.958Z,21
2023-04-27T07:13:33.966Z,21
2023-04-27T07:19:24.740Z,21.1
2023-04-27T07:25:19.070Z,21
2023-04-27T07:31:22.913Z,21
2023-04-27T07:37:29.892Z,21.1
2023-04-27T07:43:22.775Z,21
2023-04-27T07:49:14.577Z,21.1
2023-04-27T07:55:06.063Z,21.1
2023-04-27T08:00:57.236Z,21.1
2023-04-27T08:06:56.009Z,21.1
2023-04-27T08:12:37.585Z,21.1
2023-04-27T08:18:14.770Z,21.1
2023-04-27T08:56:06.024Z,21.2
2023-04-27T09:01:58.545Z,21.2
2023-04-27T09:08:04.918Z,21.3
2023-04-27T09:13:55.999Z,21.3
2023-04-27T09:19:46.907Z,21.3
2023-04-27T09:24:52.647Z,21.3
2023-04-27T09:30:44.404Z,21.3
2023-04-27T09:36:36.319Z,21.3
2023-04-27T09:42:27.665Z,21.3
2023-04-27T09:48:21.464Z,21.3
2023-04-27T09:53:56.616Z,21.2
2023-04-27T09:59:48.366Z,21.3
2023-04-27T10:06:11.417Z,21.3
2023-04-27T10:12:02.316Z,21.2
2023-04-27T10:17:54.060Z,21.3
2023-04-27T10:23:48.140Z,21.2
2023-04-27T10:29:40.745Z,21.2
2023-04-27T10:35:32.510Z,21.2
2023-04-27T10:41:39.665Z,21.2
2023-04-27T10:47:30.392Z,21.2
2023-04-27T10:59:07.309Z,21.2
2023-04-27T11:04:44.347Z,21.2
2023-04-27T11:16:13.767Z,21.2
2023-04-27T11:22:04.708Z,21.2
2023-04-27T11:27:56.624Z,21.1
2023-04-27T11:33:33.572Z,21.1
2023-04-27T11:44:47.384Z,21.1
2023-04-27T12:12:41.288Z,21.1
2023-04-27T12:17:47.745Z,21.1
2023-04-27T12:23:39.531Z,21.1
2023-04-27T12:29:18.010Z,21
2023-04-27T12:34:55.330Z,21
2023-04-27T12:40:47.383Z,21
2023-04-27T12:46:38.060Z,20.9
2023-04-27T12:52:58.739Z,21
2023-04-27T12:59:05.547Z,21
2023-04-27T13:05:00.328Z,21
2023-04-27T13:10:52.402Z,20.9
2023-04-27T13:16:45.114Z,20.9
2023-04-27T13:22:42.309Z,20.9
2023-04-27T13:28:35.366Z,21
2023-04-27T13:34:41.506Z,20.9
2023-04-27T13:40:32.775Z,20.9
2023-04-27T13:46:24.926Z,20.9
2023-04-27T13:52:01.789Z,20.9
2023-04-27T13:57:52.494Z,20.9
2023-04-27T14:03:45.831Z,20.9
2023-04-27T14:09:38.486Z,20.9
2023-04-27T14:15:47.536Z,20.9
2023-04-27T14:21:50.616Z,20.9
2023-04-27T14:27:42.491Z,20.9
2023-04-27T14:33:33.192Z,20.9
2023-04-27T14:39:25.663Z,20.9
2023-04-27T14:45:16.948Z,20.9
2023-04-27T14:51:33.935Z,20.8
2023-04-27T14:57:25.864Z,20.8
2023-04-27T15:03:18.329Z,20.8
2023-04-27T15:09:10.176Z,21.7
2023-04-27T15:15:02.779Z,24.4
2023-04-27T15:20:55.061Z,26.2
2023-04-27T15:26:47.049Z,27.3
2023-04-27T15:32:41.065Z,28.3
2023-04-27T15:38:32.579Z,28.3
2023-04-27T15:44:24.472Z,28.3
2023-04-27T15:50:13.228Z,28.7
2023-04-27T15:56:06.352Z,29
2023-04-27T16:02:00.801Z,29.8
2023-04-27T16:07:53.954Z,30.3
2023-04-27T16:13:49.191Z,30.5
2023-04-27T16:19:25.248Z,30.6
2023-04-27T16:25:17.226Z,30.3
2023-04-27T16:31:08.902Z,30.3
2023-04-27T16:37:00.216Z,30.2
2023-04-27T16:42:37.160Z,30.8
2023-04-27T16:48:29.606Z,31.2
2023-04-27T16:54:21.333Z,31.4
2023-04-27T16:59:57.947Z,31.5
2023-04-27T17:06:03.703Z,31.5
2023-04-27T17:11:56.256Z,31.1
2023-04-27T17:17:48.446Z,31
2023-04-27T17:23:43.580Z,30.7
2023-04-27T17:29:34.915Z,30.4
2023-04-27T17:35:32.156Z,30.1
2023-04-27T17:41:24.284Z,29.8
2023-04-27T17:47:15.272Z,30.5
2023-04-27T17:53:07.561Z,31.5
2023-04-27T17:58:44.459Z,32.1
2023-04-27T18:04:22.710Z,32.3
2023-04-27T18:09:46.399Z,32.4
2023-04-27T18:15:25.970Z,32.4
2023-04-27T18:21:31.908Z,32.4
2023-04-27T18:27:24.076Z,32.5
2023-04-27T18:33:18.633Z,32.4
2023-04-27T18:39:10.097Z,32.6
2023-04-27T18:45:02.167Z,32.7
2023-04-27T18:50:39.552Z,32.6
2023-04-27T18:56:30.830Z,32.8
2023-04-27T19:02:23.973Z,32.8
2023-04-27T19:08:36.466Z,32.3
2023-04-27T19:14:33.307Z,32.6
2023-04-27T19:20:36.944Z,32.3
2023-04-27T19:26:46.356Z,32.2
2023-04-27T19:32:39.855Z,31.8
2023-04-27T19:38:36.236Z,31.4
2023-04-27T19:44:16.953Z,30.8
2023-04-27T19:50:10.237Z,30.4
2023-04-27T19:56:03.710Z,29.9
2023-04-27T20:01:56.376Z,29.6
2023-04-27T20:07:55.187Z,29.3
2023-04-27T20:14:04.102Z,29.1
2023-04-27T20:19:42.315Z,28.8
2023-04-27T20:25:22.870Z,28.6
2023-04-27T20:31:16.213Z,28.3
2023-04-27T20:37:22.313Z,28.1
2023-04-27T20:43:16.139Z,27.9
2023-04-27T20:48:37.285Z,27.8
2023-04-27T20:54:43.138Z,27.6
2023-04-27T21:00:35.236Z,27.5
2023-04-27T21:06:29.166Z,27.3
2023-04-27T21:12:23.669Z,27.2
2023-04-27T21:18:28.763Z,26.8
2023-04-27T21:24:29.897Z,26.4
2023-04-27T21:30:21.817Z,26.1
2023-04-27T21:36:16.894Z,25.7
2023-04-27T21:42:08.527Z,25.4
2023-04-27T21:48:00.652Z,25.1
2023-04-27T21:53:36.760Z,24.9
2023-04-27T21:59:32.331Z,24.7
2023-04-27T22:05:25.548Z,24.6
2023-04-27T22:10:48.225Z,24.3
2023-04-27T22:16:52.577Z,24.2
2023-04-27T22:22:44.455Z,24.1
2023-04-27T22:28:49.603Z,23.9
2023-04-27T22:34:41.415Z,23.8
2023-04-27T22:40:40.379Z,23.8
2023-04-27T22:46:31.082Z,23.6
2023-04-27T22:52:22.151Z,23.6
2023-04-27T22:58:13.235Z,23.4
2023-04-27T23:04:05.777Z,23.3
2023-04-27T23:09:57.793Z,23.3
2023-04-27T23:15:49.338Z,23.2
2023-04-27T23:21:47.358Z,23.1
2023-04-27T23:27:39.255Z,23
2023-04-27T23:33:31.127Z,22.9
2023-04-27T23:39:06.763Z,22.9
2023-04-27T23:44:42.723Z,22.8
2023-04-27T23:50:34.676Z,22.8
2023-04-27T23:56:10.589Z,22.7
